Time;durP1;ratioP1;P1;durP2;ratioP2;P2;SDS_P1;SDS_P2;PMS_P1;PMS_P2;Temp;Humidity;BMP_temperature;BMP_pressure;BME280_temperature;BME280_humidity;BME280_pressure;Samples;Min_cycle;Max_cycle;Signal;HPM_P1;HPM_P2
2022/02/10 00:25:47;;;;;;;;;;;;;;;;;;5077998;28;19905;-72
2022/02/10 00:36:14;;;;;;;;;;;;;;;;;;5097199;28;19983;-72
2022/02/10 00:38:55;;;;;;;;;;;;;;;;;;5098819;28;19904;-72
2022/02/10 00:41:22;;;;;;;;;;;;;;;;;;5098298;28;19904;-72
2022/02/10 00:43:49;;;;;;;;;;;;;;;;;;5078790;28;19940;-73
2022/02/10 00:46:15;;;;;;;;;;;;;;;;;;5079706;28;19912;-74
2022/02/10 00:48:42;;;;;;;;;;;;;;;;;;5071208;28;19904;-72
2022/02/10 00:51:09;;;;;;;;;;;;;;;;;;5070212;28;20343;-73
2022/02/10 00:53:39;;;;;;;;;;;;;;;;;;5069962;28;19990;-73
2022/02/10 00:56:06;;;;;;;;;;;;;;;;;;5084070;28;19958;-74
2022/02/10 00:58:35;;;;;;;;;;;;;;;;;;5093920;28;19904;-72
2022/02/10 01:30:35;;;;;;;;;;;;;;;;;;5074617;28;20404;-74
2022/02/10 01:33:05;;;;;;;;;;;;;;;;;;5070780;28;19965;-74
2022/02/10 01:35:32;;;;;;;;;;;;;;;;;;5086409;28;19915;-74
2022/02/10 01:37:58;;;;;;;;;;;;;;;;;;5089289;28;19936;-74
2022/02/10 02:04:47;;;;;;;;;;;;;;;;;;5091075;28;19915;-74
2022/02/10 02:07:14;;;;;;;;;;;;;;;;;;5092938;28;19923;-74
2022/02/10 02:09:40;;;;;;;;;;;;;;;;;;5073936;28;19908;-74
2022/02/10 02:12:06;;;;;;;;;;;;;;;;;;5073418;28;19969;-74
2022/02/10 02:14:32;;;;;;;;;;;;;;;;;;5081417;28;19904;-74
2022/02/10 02:17:02;;;;;;;;;;;;;;;;;;5091060;28;20312;-74
2022/02/10 02:19:29;;;;;;;;;;;;;;;;;;5071951;28;19961;-74
2022/02/10 02:21:55;;;;;;;;;;;;;;;;;;5068700;28;19991;-74
2022/02/10 02:24:22;;;;;;;;;;;;;;;;;;5074305;28;19912;-74
2022/02/10 02:26:49;;;;;;;;;;;;;;;;;;5090822;28;19908;-74
2022/02/10 02:29:19;;;;;;;;;;;;;;;;;;5091847;28;19904;-74
2022/02/10 02:31:55;;;;;;;;;;;;;;;;;;5093030;28;19939;-73
2022/02/10 03:06:39;;;;;;;;;;;;;;;;;;5081836;28;20351;-74
2022/02/10 03:09:10;;;;;;;;;;;;;;;;;;5077439;28;20555;-73
2022/02/10 03:11:39;;;;;;;;;;;;;;;;;;5090512;28;19903;-74
2022/02/10 03:14:10;;;;;;;;;;;;;;;;;;5083857;28;19916;-74
2022/02/10 04:02:43;;;;;;;;;;;;;;;;;;5093197;28;19993;-75
2022/02/10 04:10:11;;;;;;;;;;;;;;;;;;5067937;28;19912;-74
2022/02/10 04:23:37;;;;;;;;;;;;;;;;;;5093180;28;19912;-77
2022/02/10 04:26:26;;;;;;;;;;;;;;;;;;5076983;28;19962;-76
2022/02/10 05:01:11;;;;;;;;;;;;;;;;;;5085865;28;20049;-75
2022/02/10 05:03:56;;;;;;;;;;;;;;;;;;5093372;28;19999;-74
2022/02/10 05:35:46;;;;;;;;;;;;;;;;;;5093991;28;19908;-74
2022/02/10 05:38:23;;;;;;;;;;;;;;;;;;5089808;28;20356;-74
2022/02/10 05:52:07;;;;;;;;;;;;;;;;;;5094548;28;19973;-76
2022/02/10 06:51:43;;;;;;;;;;;;;;;;;;5088239;28;20274;-75
2022/02/10 06:55:06;;;;;;;;;;;;;;;;;;5092258;28;19918;-75
2022/02/10 07:07:54;;;;;;;;;;;;;;;;;;5067645;28;20012;-75
2022/02/10 07:10:33;;;;;;;;;;;;;;;;;;5067692;28;19904;-75
2022/02/10 07:57:02;;;;;;;;;;;;;;;;;;5072307;28;19912;-75
2022/02/10 09:07:09;;;;;;;;;;;;;;;;;;5043102;28;20536;-76
2022/02/10 09:15:26;;;;;;;;;;;;;;;;;;5075129;28;20010;-75
2022/02/10 10:00:53;;;;;;;;;;;;;;;;;;5065244;28;20371;-75
2022/02/10 10:03:26;;;;;;;;;;;;;;;;;;5077122;28;20279;-75
2022/02/10 10:05:52;;;;;;;;;;;;;;;;;;5068517;28;19912;-75
2022/02/10 10:08:37;;;;;;;;;;;;;;;;;;5068791;28;19908;-75
2022/02/10 10:11:28;;;;;;;;;;;;;;;;;;5068837;28;19908;-74
2022/02/10 10:14:06;;;;;;;;;;;;;;;;;;5084315;28;20479;-75
2022/02/10 10:16:45;;;;;;;;;;;;;;;;;;5094155;28;19904;-75
2022/02/10 10:19:35;;;;;;;;;;;;;;;;;;5094078;28;19927;-75
2022/02/10 10:22:16;;;;;;;;;;;;;;;;;;5094031;28;19908;-75
2022/02/10 10:24:54;;;;;;;;;;;;;;;;;;5072710;28;20363;-75
2022/02/10 10:27:55;;;;;;;;;;;;;;;;;;5068012;28;19912;-75
2022/02/10 10:44:47;;;;;;;;;;;;;;;;;;5093614;28;19995;-75
2022/02/10 10:48:44;;;;;;;;;;;;;;;;;;5090523;28;19900;-75
2022/02/10 10:50:09;;;;;;;;;;;;;;;;;;5074513;28;19904;-75
2022/02/10 10:52:53;;;;;;;;;;;;;;;;;;5070884;28;19982;-75
2022/02/10 10:55:34;;;;;;;;;;;;;;;;;;5067943;28;19958;-75
2022/02/10 10:58:01;;;;;;;;;;;;;;;;;;5071761;28;19911;-75
2022/02/10 11:00:56;;;;;;;;;;;;;;;;;;5073260;28;19991;-75
2022/02/10 11:36:36;;;;;;;;;;;;;;;;;;5067458;28;19943;-75
2022/02/10 11:39:03;;;;;;;;;;;;;;;;;;5067178;28;19915;-75
2022/02/10 11:41:49;;;;;;;;;;;;;;;;;;5074694;28;19983;-74
2022/02/10 11:47:35;;;;;;;;;;;;;;;;;;5092686;28;19962;-75
2022/02/10 12:33:07;;;;;;;;;;;;;;;;;;5089267;28;19931;-75
2022/02/10 12:37:08;;;;;;;;;;;;;;;;;;5039596;28;19947;-75
2022/02/10 12:40:06;;;;;;;;;;;;;;;;;;5066968;28;20057;-75
2022/02/10 13:23:54;;;;;;;;;;;;;;;;;;5071619;28;19919;-75
2022/02/10 14:09:21;;;;;;;;;;;;;;;;;;5089237;28;19952;-74
2022/02/10 14:17:06;;;;;;;;;;;;;;;;;;5092852;28;19998;-74
2022/02/10 14:27:28;;;;;;;;;;;;;;;;;;5073140;28;19963;-75
2022/02/10 14:29:54;;;;;;;;;;;;;;;;;;5068271;28;19904;-75
2022/02/10 14:32:25;;;;;;;;;;;;;;;;;;5068191;28;19909;-75
2022/02/10 14:34:54;;;;;;;;;;;;;;;;;;5068546;28;20430;-75
2022/02/10 14:37:35;;;;;;;;;;;;;;;;;;5087359;28;20411;-75
2022/02/10 14:40:44;;;;;;;;;;;;;;;;;;5076350;28;19908;-75
2022/02/10 15:14:33;;;;;;;;;;;;;;;;;;5075395;28;19969;-76
2022/02/10 15:21:48;;;;;;;;;;;;;;;;;;5070829;28;19916;-75
2022/02/10 15:52:09;;;;;;;;;;;;;;;;;;5025957;28;19963;-76
2022/02/10 16:10:59;;;;;;;;;;;;;;;;;;5089341;28;19914;-75
2022/02/10 16:18:55;;;;;;;;;;;;;;;;;;5077751;28;19923;-75
2022/02/10 16:21:44;;;;;;;;;;;;;;;;;;5085016;28;19923;-75
2022/02/10 16:24:17;;;;;;;;;;;;;;;;;;5079974;28;19912;-76
2022/02/10 16:27:30;;;;;;;;;;;;;;;;;;5077338;28;19916;-76
2022/02/10 16:29:30;;;;;;;;;;;;;;;;;;5070016;28;19977;-75
2022/02/10 16:31:56;;;;;;;;;;;;;;;;;;5087900;28;19915;-76
2022/02/10 16:34:22;;;;;;;;;;;;;;;;;;5086465;28;19924;-76
2022/02/10 16:36:49;;;;;;;;;;;;;;;;;;5096207;28;19904;-75
2022/02/10 16:39:15;;;;;;;;;;;;;;;;;;5083714;28;20010;-76
2022/02/10 16:41:42;;;;;;;;;;;;;;;;;;5078986;28;20374;-76
2022/02/10 16:44:08;;;;;;;;;;;;;;;;;;5084973;28;20367;-76
2022/02/10 16:46:34;;;;;;;;;;;;;;;;;;5071427;28;19989;-75
2022/02/10 16:49:01;;;;;;;;;;;;;;;;;;5082436;28;19908;-76
2022/02/10 16:51:27;;;;;;;;;;;;;;;;;;5091516;28;19904;-76
2022/02/10 16:54:03;;;;;;;;;;;;;;;;;;5080070;28;20666;-75
2022/02/10 16:56:37;;;;;;;;;;;;;;;;;;5091814;28;19908;-75
2022/02/10 16:59:12;;;;;;;;;;;;;;;;;;5081276;28;19908;-76
2022/02/10 17:04:53;;;;;;;;;;;;;;;;;;5071338;28;19908;-76
2022/02/10 17:21:15;;;;;;;;;;;;;;;;;;5079928;28;19958;-75
2022/02/10 17:28:54;;;;;;;;;;;;;;;;;;5077611;28;19912;-76
2022/02/10 17:31:42;;;;;;;;;;;;;;;;;;5089189;28;19904;-76
2022/02/10 17:36:49;;;;;;;;;;;;;;;;;;5087502;28;19908;-76
2022/02/10 17:42:22;;;;;;;;;;;;;;;;;;5093273;28;19963;-76
2022/02/10 17:45:06;;;;;;;;;;;;;;;;;;5074983;28;19915;-75
2022/02/10 17:53:23;;;;;;;;;;;;;;;;;;5019711;28;20357;-75
2022/02/10 17:55:49;;;;;;;;;;;;;;;;;;5080484;28;19911;-79
2022/02/10 17:58:18;;;;;;;;;;;;;;;;;;5073079;28;20010;-73
2022/02/10 18:00:44;;;;;;;;;;;;;;;;;;5074363;28;20424;-71
2022/02/10 18:03:10;;;;;;;;;;;;;;;;;;5075357;28;20004;-74
2022/02/10 18:08:05;;;;;;;;;;;;;;;;;;5084723;28;19909;-73
2022/02/10 18:11:28;;;;;;;;;;;;;;;;;;5081580;28;19904;-71
2022/02/10 18:13:27;;;;;;;;;;;;;;;;;;5086642;28;19935;-72
2022/02/10 18:15:59;;;;;;;;;;;;;;;;;;5089412;28;19965;-70
2022/02/10 18:18:37;;;;;;;;;;;;;;;;;;5085911;28;19927;-73
2022/02/10 18:24:41;;;;;;;;;;;;;;;;;;5075026;28;19908;-76
2022/02/10 18:38:19;;;;;;;;;;;;;;;;;;5088878;28;20298;-70
2022/02/10 19:09:56;;;;;;;;;;;;;;;;;;5079375;28;19926;-69
2022/02/10 19:12:30;;;;;;;;;;;;;;;;;;5087284;28;19909;-69
2022/02/10 19:15:42;;;;;;;;;;;;;;;;;;5074073;28;20331;-70
2022/02/10 19:17:43;;;;;;;;;;;;;;;;;;5057467;28;20072;-70
2022/02/10 19:20:09;;;;;;;;;;;;;;;;;;5068028;28;20291;-70
2022/02/10 19:22:37;;;;;;;;;;;;;;;;;;5068416;28;19919;-70
2022/02/10 19:25:05;;;;;;;;;;;;;;;;;;5067915;28;19909;-68
2022/02/10 19:27:31;;;;;;;;;;;;;;;;;;5072418;28;20256;-72
2022/02/10 19:29:58;;;;;;;;;;;;;;;;;;5072910;28;19943;-69
2022/02/10 19:32:27;;;;;;;;;;;;;;;;;;5072423;28;19908;-69
2022/02/10 19:34:55;;;;;;;;;;;;;;;;;;5073754;28;19909;-72
2022/02/10 19:37:22;;;;;;;;;;;;;;;;;;5072510;28;20334;-69
2022/02/10 19:39:54;;;;;;;;;;;;;;;;;;5067437;28;20370;-69
2022/02/10 19:42:20;;;;;;;;;;;;;;;;;;5067715;28;20415;-67
2022/02/10 19:44:46;;;;;;;;;;;;;;;;;;5081280;28;19911;-69
2022/02/10 19:47:12;;;;;;;;;;;;;;;;;;5087804;28;19995;-69
2022/02/10 19:49:41;;;;;;;;;;;;;;;;;;5074873;28;19966;-72
2022/02/10 19:52:08;;;;;;;;;;;;;;;;;;5072140;28;20359;-73
2022/02/10 19:54:39;;;;;;;;;;;;;;;;;;5075704;28;19912;-73
2022/02/10 19:57:05;;;;;;;;;;;;;;;;;;5076932;28;19944;-72
2022/02/10 19:59:32;;;;;;;;;;;;;;;;;;5092329;28;19967;-73
2022/02/10 20:01:59;;;;;;;;;;;;;;;;;;5091798;28;19908;-74
2022/02/10 20:04:25;;;;;;;;;;;;;;;;;;5082495;28;19905;-73
2022/02/10 20:06:51;;;;;;;;;;;;;;;;;;5070918;28;19916;-72
2022/02/10 20:09:18;;;;;;;;;;;;;;;;;;5072273;28;19914;-74
2022/02/10 20:11:44;;;;;;;;;;;;;;;;;;5095812;28;20391;-73
2022/02/10 20:14:10;;;;;;;;;;;;;;;;;;5084133;28;19912;-73
2022/02/10 20:16:36;;;;;;;;;;;;;;;;;;5090222;28;19955;-73
2022/02/10 20:19:05;;;;;;;;;;;;;;;;;;5094708;28;19949;-74
2022/02/10 20:21:31;;;;;;;;;;;;;;;;;;5096420;28;19916;-72
2022/02/10 20:23:57;;;;;;;;;;;;;;;;;;5091277;28;19916;-73
2022/02/10 20:26:24;;;;;;;;;;;;;;;;;;5091257;28;19910;-73
2022/02/10 20:28:50;;;;;;;;;;;;;;;;;;5080928;28;19913;-74
2022/02/10 20:31:16;;;;;;;;;;;;;;;;;;5071014;28;20288;-73
2022/02/10 20:33:44;;;;;;;;;;;;;;;;;;5078136;28;19923;-73
2022/02/10 20:36:10;;;;;;;;;;;;;;;;;;5075840;28;20340;-72
2022/02/10 20:38:39;;;;;;;;;;;;;;;;;;5076004;28;19905;-73
2022/02/10 20:41:09;;;;;;;;;;;;;;;;;;5075576;28;20001;-72
2022/02/10 20:43:36;;;;;;;;;;;;;;;;;;5083302;28;20020;-72
2022/02/10 20:46:05;;;;;;;;;;;;;;;;;;5072545;28;19923;-73
2022/02/10 20:48:33;;;;;;;;;;;;;;;;;;5071645;28;19935;-73
2022/02/10 20:50:59;;;;;;;;;;;;;;;;;;5070524;28;19904;-73
2022/02/10 20:53:25;;;;;;;;;;;;;;;;;;5070506;28;19947;-73
2022/02/10 20:55:52;;;;;;;;;;;;;;;;;;5073451;28;19957;-73
2022/02/10 20:58:20;;;;;;;;;;;;;;;;;;5076687;28;20009;-70
2022/02/10 21:00:46;;;;;;;;;;;;;;;;;;5076369;28;19908;-69
2022/02/10 21:03:15;;;;;;;;;;;;;;;;;;5076654;28;20377;-70
2022/02/10 21:05:43;;;;;;;;;;;;;;;;;;5074203;28;19904;-73
2022/02/10 21:08:15;;;;;;;;;;;;;;;;;;5071353;28;19902;-70
2022/02/10 21:10:42;;;;;;;;;;;;;;;;;;5082817;28;19904;-72
2022/02/10 21:13:10;;;;;;;;;;;;;;;;;;5085934;28;20288;-69
2022/02/10 21:15:47;;;;;;;;;;;;;;;;;;5070276;28;20000;-70
2022/02/10 21:18:15;;;;;;;;;;;;;;;;;;5074879;28;19987;-69
2022/02/10 21:20:42;;;;;;;;;;;;;;;;;;5075195;28;20008;-69
2022/02/10 21:23:26;;;;;;;;;;;;;;;;;;5074750;28;20282;-69
2022/02/10 21:25:55;;;;;;;;;;;;;;;;;;5075051;28;20373;-69
2022/02/10 21:28:29;;;;;;;;;;;;;;;;;;5080709;28;20282;-69
2022/02/10 21:30:57;;;;;;;;;;;;;;;;;;5090224;28;20278;-69
2022/02/10 21:38:42;;;;;;;;;;;;;;;;;;5090096;28;19935;-71
2022/02/10 22:06:14;;;;;;;;;;;;;;;;;;5094559;28;19904;-73
2022/02/10 22:19:00;;;;;;;;;;;;;;;;;;5069593;28;19909;-72
2022/02/10 22:21:30;;;;;;;;;;;;;;;;;;5068756;28;19939;-72
2022/02/10 22:23:56;;;;;;;;;;;;;;;;;;5070887;28;19940;-71
2022/02/10 22:26:29;;;;;;;;;;;;;;;;;;5073698;28;19912;-71
2022/02/10 22:29:04;;;;;;;;;;;;;;;;;;5084494;28;19915;-71
2022/02/10 22:31:41;;;;;;;;;;;;;;;;;;5093794;28;20439;-72
2022/02/10 22:34:19;;;;;;;;;;;;;;;;;;5093984;28;19934;-71
2022/02/10 22:36:47;;;;;;;;;;;;;;;;;;5084399;28;19908;-71
2022/02/10 22:39:14;;;;;;;;;;;;;;;;;;5068879;28;19911;-71
2022/02/10 22:41:40;;;;;;;;;;;;;;;;;;5068199;28;19908;-72
2022/02/10 22:44:06;;;;;;;;;;;;;;;;;;5068678;28;19990;-72
2022/02/10 22:46:33;;;;;;;;;;;;;;;;;;5074720;28;19912;-72
2022/02/10 22:48:59;;;;;;;;;;;;;;;;;;5093589;28;19904;-72
2022/02/10 22:51:25;;;;;;;;;;;;;;;;;;5081282;28;19961;-72
2022/02/10 22:53:51;;;;;;;;;;;;;;;;;;5092747;28;19911;-71
2022/02/10 22:56:17;;;;;;;;;;;;;;;;;;5093667;28;20324;-71
2022/02/10 22:58:44;;;;;;;;;;;;;;;;;;5090696;28;19985;-71
2022/02/10 23:01:10;;;;;;;;;;;;;;;;;;5088079;28;20002;-71
2022/02/10 23:03:36;;;;;;;;;;;;;;;;;;5087645;28;19915;-71
2022/02/10 23:06:02;;;;;;;;;;;;;;;;;;5086424;28;19912;-71
2022/02/10 23:08:29;;;;;;;;;;;;;;;;;;5090605;28;20358;-71
2022/02/10 23:10:55;;;;;;;;;;;;;;;;;;5093198;28;19904;-71
2022/02/10 23:13:22;;;;;;;;;;;;;;;;;;5093363;28;19920;-71
2022/02/10 23:15:49;;;;;;;;;;;;;;;;;;5077418;28;19908;-71
2022/02/10 23:18:15;;;;;;;;;;;;;;;;;;5073609;28;19908;-71
2022/02/10 23:20:41;;;;;;;;;;;;;;;;;;5070801;28;19909;-71
2022/02/10 23:23:08;;;;;;;;;;;;;;;;;;5067992;28;19912;-71
2022/02/10 23:25:34;;;;;;;;;;;;;;;;;;5067882;28;19958;-71
2022/02/10 23:28:00;;;;;;;;;;;;;;;;;;5077337;28;19962;-71
2022/02/10 23:30:27;;;;;;;;;;;;;;;;;;5089525;28;19908;-71
2022/02/10 23:32:57;;;;;;;;;;;;;;;;;;5091122;28;20302;-71
2022/02/10 23:36:22;;;;;;;;;;;;;;;;;;5083169;28;19942;-71
2022/02/10 23:38:22;;;;;;;;;;;;;;;;;;5072411;28;20322;-71
2022/02/10 23:43:33;;;;;;;;;;;;;;;;;;5089429;28;20701;-71
2022/02/10 23:45:59;;;;;;;;;;;;;;;;;;5083964;28;19927;-71
2022/02/10 23:48:28;;;;;;;;;;;;;;;;;;5081982;28;19908;-71
2022/02/10 23:50:54;;;;;;;;;;;;;;;;;;5087375;28;19965;-71
2022/02/10 23:53:20;;;;;;;;;;;;;;;;;;5075250;28;19919;-71
2022/02/10 23:55:47;;;;;;;;;;;;;;;;;;5086241;28;19912;-71
2022/02/10 23:58:41;;;;;;;;;;;;;;;;;;5093128;28;19904;-71
